Michael Poindexter — WDD4332 — position and weather

sailwx.info

Track history (hours):
 
Tides and Currents Weather Stations Pressure Air Temp Water Temp Dewpoint Dewpoint Depression Visibility Wind Speed Wind Dir Waves Ship Positions

Michael Poindexter

Owner: American Commercial Lines LLC, Jeffersonville, IN. More information available from US FCC via Universal Licensing System and Coast Guard Vessel Documentation Center.

Last reported at 2017-Sep-19 21:38 UTC. Time now 2017-Nov-22 09:22 UTC.
Position N 41°10' W 091°01'.
Warning: this ship's position is months out of date.

Length 48 m; draft 3 m.

Type: Towing. MMSI: 367143380.

Date/timePositionNaut miles runAvg speedWind from/ knotsBaromVisibWave heightAir tempDewpointWater temp
2017-Sep-19 21:38N 41°10' W 091°01'4 2.5
2017-Sep-19 20:13N 41°07' W 090°58'1 3.1
2017-Sep-19 19:58N 41°07' W 090°57'1 2.8
2017-Sep-19 19:30N 41°06' W 090°57'2 2.9
2017-Sep-19 18:55N 41°04' W 090°57'1 3.0
2017-Sep-19 18:31N 41°03' W 090°57'2 3.1
2017-Sep-19 17:45N 41°00' W 090°57'1 3.1
2017-Sep-19 17:30N 40°60' W 090°57'1 2.8
2017-Sep-19 17:01N 40°58' W 090°57'2 3.9
2017-Sep-19 16:31N 40°56' W 090°57'2 3.6
2017-Sep-19 16:00N 40°55' W 090°59'2 3.9
2017-Sep-19 15:30N 40°54' W 091°01'1 1.8
2017-Sep-19 15:00N 40°53' W 091°01'1 1.1
2017-Sep-19 14:30N 40°53' W 091°02'1 1.6
2017-Sep-19 14:00N 40°52' W 091°03'0 0.0
2017-Sep-19 13:31N 40°52' W 091°03'0 0.0
2017-Sep-19 13:00N 40°52' W 091°03'0 0.0
2017-Sep-19 12:30N 40°52' W 091°03'0 0.0
2017-Sep-19 12:01N 40°52' W 091°03'0 0.0
2017-Sep-19 11:31N 40°52' W 091°03'0 0.0
2017-Sep-19 11:00N 40°52' W 091°03'0 0.0
2017-Sep-19 10:31N 40°52' W 091°03'  
2017-Sep-12 07:27N 38°55' W 090°17'2 5.4
2017-Sep-12 07:00N 38°56' W 090°20'3 5.8
2017-Sep-12 06:30N 38°57' W 090°23'3 5.1
2017-Sep-12 06:00N 38°58' W 090°26'2 4.8
2017-Sep-12 05:30N 38°56' W 090°29'  
Track history (hours):
 
Tides and Currents Weather Stations Pressure Air Temp Water Temp Dewpoint Dewpoint Depression Visibility Wind Speed Wind Dir Waves Ship Positions

Michael Poindexter

Owner: American Commercial Lines LLC, Jeffersonville, IN. More information available from US FCC via Universal Licensing System and Coast Guard Vessel Documentation Center.

Last reported at 2017-Sep-19 21:38 UTC. Time now 2017-Nov-22 09:22 UTC.
Position N 41°10' W 091°01'.
Warning: this ship's position is months out of date.

Length 48 m; draft 3 m.

Type: Towing. MMSI: 367143380.

Date/timePositionNaut miles runAvg speedWind from/ knotsBaromVisibWave heightAir tempDewpointWater temp
2017-Sep-19 21:38N 41°10' W 091°01'4 2.5
2017-Sep-19 20:13N 41°07' W 090°58'1 3.1
2017-Sep-19 19:58N 41°07' W 090°57'1 2.8
2017-Sep-19 19:30N 41°06' W 090°57'2 2.9
2017-Sep-19 18:55N 41°04' W 090°57'1 3.0
2017-Sep-19 18:31N 41°03' W 090°57'2 3.1
2017-Sep-19 17:45N 41°00' W 090°57'1 3.1
2017-Sep-19 17:30N 40°60' W 090°57'1 2.8
2017-Sep-19 17:01N 40°58' W 090°57'2 3.9
2017-Sep-19 16:31N 40°56' W 090°57'2 3.6
2017-Sep-19 16:00N 40°55' W 090°59'2 3.9
2017-Sep-19 15:30N 40°54' W 091°01'1 1.8
2017-Sep-19 15:00N 40°53' W 091°01'1 1.1
2017-Sep-19 14:30N 40°53' W 091°02'1 1.6
2017-Sep-19 14:00N 40°52' W 091°03'0 0.0
2017-Sep-19 13:31N 40°52' W 091°03'0 0.0
2017-Sep-19 13:00N 40°52' W 091°03'0 0.0
2017-Sep-19 12:30N 40°52' W 091°03'0 0.0
2017-Sep-19 12:01N 40°52' W 091°03'0 0.0
2017-Sep-19 11:31N 40°52' W 091°03'0 0.0
2017-Sep-19 11:00N 40°52' W 091°03'0 0.0
2017-Sep-19 10:31N 40°52' W 091°03'  
2017-Sep-12 07:27N 38°55' W 090°17'2 5.4
2017-Sep-12 07:00N 38°56' W 090°20'3 5.8
2017-Sep-12 06:30N 38°57' W 090°23'3 5.1
2017-Sep-12 06:00N 38°58' W 090°26'2 4.8
2017-Sep-12 05:30N 38°56' W 090°29'  

Dump ship's entire track history